LKPR - Praha Ruzyně, Česká republika
Vzdálenost od této stanice: ZSZ 177km
Aktualizováno: 20.10.2018 23:00
 
Teplota vzduchu: 8°C
Chlad větru: 7°C
Vítr: SZ 7 km/h
Rosný bod: 3°C
Vlhkost vzduchu: 71%
Tlak vzduchu: 1029 hPa
Stav počasí: Jasno
Oblačnost: jasná obloha
Viditelnost: více než 10 km
2018/10/20 21:00 LKPR 202100Z 32004KT CAVOK 08/03 Q1029 NOSIG
LKTB - Brno Tuřany, Česká republika
Vzdálenost od této stanice: VJV 28km
Aktualizováno: 20.10.2018 23:00
 
Teplota vzduchu: 9°C
Chlad větru: 7°C
Vítr: SSV 9 km/h
Rosný bod: 2°C
Vlhkost vzduchu: 62%
Tlak vzduchu: 1027 hPa
Oblačnost: skoro zataženo
Viditelnost: 10 km
Detaily oblačnosti: skoro zataženo 914 m
2018/10/20 21:00 LKTB 202100Z 02005KT 9999 BKN030 09/02 Q1027 NOSIG
 
LKKV - Karlovy Vary, Česká republika
Vzdálenost od této stanice: SZ 268km
Aktualizováno: 20.10.2018 23:00
 
Teplota vzduchu: 7°C
Vítr: proměnlivý 4 km/h
Rosný bod: 3°C
Vlhkost vzduchu: 76%
Tlak vzduchu: 1029 hPa
Oblačnost: skoro zataženo
Viditelnost: 10 km
Detaily oblačnosti: skoro jasno 914 m
skoro zataženo 1311 m
2018/10/20 21:00 LKKV 202100Z VRB02KT 9999 FEW030 BKN043 07/03 Q1029
LKMT - Ostrava Mošnov, Česká republika
Vzdálenost od této stanice: VSV 136km
Aktualizováno: 20.10.2018 23:00
 
Teplota vzduchu: 6°C
Chlad větru: 4°C
Vítr: SSV 11 km/h
Rosný bod: 1°C
Vlhkost vzduchu: 71%
Tlak vzduchu: 1027 hPa
Stav počasí: Jasno
Oblačnost: jasná obloha
Viditelnost: více než 10 km
2018/10/20 21:00 LKMT 202100Z 02006KT 350V050 CAVOK 06/01 Q1027 NOSIG
 
LKPD - Pardubice, Česká republika
Vzdálenost od této stanice: SSZ 97km
Aktualizováno: 20.10.2018 23:00
 
Teplota vzduchu: 5°C
Vítr: bezvětří
Rosný bod: 1°C
Vlhkost vzduchu: 76%
Tlak vzduchu: 1028 hPa
Stav počasí: Jasno
Oblačnost: jasná obloha
Viditelnost: více než 10 km
2018/10/20 21:00 LKPD 202100Z 00000KT CAVOK 05/01 Q1028
LKKB - Praha Kbely, Česká republika
Vzdálenost od této stanice: SZ 162km
Aktualizováno: 20.10.2018 23:00
 
Teplota vzduchu: 9°C
Vítr: SZ 6 km/h
Rosný bod: 3°C
Vlhkost vzduchu: 66%
Tlak vzduchu: 1028 hPa
Stav počasí: Jasno
Oblačnost: jasná obloha
Viditelnost: více než 10 km
2018/10/20 21:00 LKKB 202100Z 32003KT CAVOK 09/03 Q1028
 
LKCV - Čáslav, Česká republika
Vzdálenost od této stanice: SZ 103km
Aktualizováno: 20.10.2018 23:00
 
Teplota vzduchu: 8°C
Vítr: proměnlivý 4 km/h
Rosný bod: 3°C
Vlhkost vzduchu: 71%
Tlak vzduchu: 1028 hPa
Stav počasí: Jasno
Oblačnost: jasná obloha
Viditelnost: více než 10 km
2018/10/20 21:00 LKCV 202100Z VRB02KT CAVOK 08/03 Q1028 NOSIG
LKNA - Náměšť n. Osl., Česká republika
Vzdálenost od této stanice: ZJZ 19km
Aktualizováno: 20.10.2018 23:00
 
Teplota vzduchu: 7°C
Chlad větru: 4°C
Vítr: SSZ 22 km/h
Rosný bod: 0°C
Vlhkost vzduchu: 61%
Tlak vzduchu: 1027 hPa
Stav počasí: Jasno
Oblačnost: jasná obloha
Viditelnost: více než 10 km
2018/10/20 21:00 LKNA 202100Z 33012KT CAVOK 07/00 Q1027
 
LKLN - Plzeň Líně, Česká republika
Vzdálenost od této stanice: Z 228km
Aktualizováno: 20.10.2018 23:00
 
Teplota vzduchu: 9°C
Vítr: SSV 6 km/h
Rosný bod: 4°C
Vlhkost vzduchu: 71%
Tlak vzduchu: 1029 hPa
Oblačnost: skoro zataženo
Viditelnost: 10 km
Detaily oblačnosti: skoro jasno 4572 m
skoro zataženo 7010 m
2018/10/20 21:00 LKLN 202100Z AUTO 02003KT 320V050 9999 FEW150 BKN230 09/04 Q1029
LKVO - Vodochody, Česká republika
Vzdálenost od této stanice: SZ 177km
Aktualizováno: 19.10.2018 16:00
Není aktuální
 
Teplota vzduchu: 15°C
Vítr: proměnlivý 9 km/h
Rosný bod: 10°C
Vlhkost vzduchu: 72%
Tlak vzduchu: 1023 hPa
Oblačnost: skoro zataženo
Viditelnost: 10 km
Detaily oblačnosti: oblačno 549 m
skoro zataženo 1311 m
2018/10/19 14:00 LKVO 191400Z VRB05KT 9999 SCT018 BKN043 15/10 Q1023